Airfield :







YOU CAN JOIN US ON...

 
LOGIN :

Register | Disclaimer

   EN    FR    IT 

 









Legend :    VFR   Marginal VFR   IFR   Intensive IFR   Very Intensive IFR
Visi :
Ceiling :
>= 8 km
>= 3000ft
5 to 8 km
1000 to 3000 ft
1500m to 5 km
500 to 1000 ft
800 to 1500m
200 to 500 ft
< 800m
< 200 ft
Symbols :   Thunderstorms  Fog  Heavy snow  Heavy precipitations  Wind > 20 kt







- Airport Elevation : 203 ft
- IATA code : YQY


CYQY - Sydney

CURRENT METAR :
  • 160116Z 22005KT 1SM R06/P6000FT/D BR SCT001 OVC002 15/15 A2987 RMK ST3ST5 SLP117 DENSITY ALT 400FT

EXPIRED METARs :
  • 160006Z 22007KT 1/2SM R06/3500FT/D FG VV002 15/15 A2989 RMK FG8 SLP123 DENSITY ALT 300FT
  • 152348Z 21005KT 3SM BR OVC002 15/15 A2989 RMK ST8 SLP125 DENSITY ALT 300FT
  • 152300Z 20007KT 10SM FEW030 SCT055 16/15 A2990 RMK CF1SC3 SLP127 DENSITY ALT 400FT

TAF AMD TAF CYQY
Valid from the 16 at 00:00 until the 16 at 12:00 UTC


152353Z 1600/1612 20007KT 5SM BR BKN002
TEMPO 1600/1602 P6SM NSW SCT002 BKN020
FM160200 25007KT P6SM SCT002 BKN008 OVC030
TEMPO 1602/1609 SCT008 OVC030
FM160900 VRB03KT P6SM -SHRA SCT004 OVC040
TEMPO 1609/1612 5SM -RA BR BKN004 OVC020
PROB30 1609/1612 1SM BR RMK NXT FCST BY 160600Z
No reported NOTAMs for that airfield.



MET'MAP, your aeronautical weather chart ! - Copyright ORBIFLY December 2007 - Disclaimer

ORBIFLY MET'MAP TEAM :

Programming & Development : Alexandra Zaïnal
Concept & Development : Baudouin d'Aumeries
Co-Development & Prog : Marc-Olivier Méhu
Technical & hardware support : Manuel Goepfert

Contact : metmap@orbifly.com




SOURCES & CREDITS :

   NOAA